Airfield :







YOU CAN JOIN US ON...

 
LOGIN :

Register | Disclaimer

   EN    FR    IT 

 









Legend :    VFR   Marginal VFR   IFR   Intensive IFR   Very Intensive IFR
Visi :
Ceiling :
>= 8 km
>= 3000ft
5 to 8 km
1000 to 3000 ft
1500m to 5 km
500 to 1000 ft
800 to 1500m
200 to 500 ft
< 800m
< 200 ft
Symbols :   Thunderstorms  Fog  Heavy snow  Heavy precipitations  Wind > 20 kt






- Airport Elevation : 84 ft
- IATA code : YJT


CYJT - Stephenville

CURRENT METAR :
  • 301500Z 29005KT 250V310 15SM OVC014 14/13 A2973 RMK ST8 SLP068 DENSITY ALT 300FT

EXPIRED METARs :
  • 301400Z 27005KT 230V300 15SM OVC013 14/13 A2974 RMK ST8 SLP072 DENSITY ALT 200FT
  • 301300Z 23006KT 210V280 15SM BKN012 OVC015 13/13 A2974 RMK ST5ST3 SLP072 DENSITY ALT 200FT

TAF AMD TAF CYJT
Valid from the 30 at 12:00 until the 31 at 12:00 UTC


301206Z 3012/3112 25010KT P6SM SCT004 OVC012
TEMPO 3012/3014 BKN004 OVC012
FM301400 24015G25KT P6SM SCT008 OVC020
TEMPO 3014/3101 5SM -RA -DZ BR BKN008 OVC020
FM310100 24012KT 6SM -RA BR SCT008 OVC015
TEMPO 3101/3106 2SM -SHRA BR BKN008 OVC015
FM310600 26008KT P6SM SCT003 OVC006
TEMPO 3106/3112 2SM BR BKN003 OVC006
PROB40 3106/3112 1/2SM FG VV002 RMK NXT FCST BY 301800Z
CZQX FIR / North America



MET'MAP, your aeronautical weather chart ! - Copyright ORBIFLY December 2007 - Disclaimer

ORBIFLY MET'MAP TEAM :

Programming & Development : Alexandra Zaïnal
Concept & original design : Baudouin d'Aumeries
Assistance for programming : Marc-Olivier Méhu
Technical & hardware support : Manuel Goepfert

Contact : metmap@orbifly.com




SOURCES & CREDITS :

   NOAA